Alleycat — WDC2435 — position and weather

sailwx.info

Track history (hours):
 
Tides and Currents Weather Stations Pressure Air Temp Water Temp Dewpoint Dewpoint Depression Visibility Wind Speed Wind Dir Waves Ship Positions

Alleycat

Owner: GNOTS-RESERVE, INC., DESTREHAN, LA. More information available from US FCC via Universal Licensing System and Coast Guard Vessel Documentation Center.

Last reported at 2014-Oct-01 12:24 UTC. Time now 2014-Oct-01 18:20 UTC.
Position N 29°56' W 090°22'.

Length 22 m; draft 2.8 m.

Type: Tug. MMSI: 366459132.

Date/timePositionNaut miles runAvg speedWind from/ knotsBaromVisibWave heightAir tempDewpointWater temp
2014-Oct-01 12:24N 29°56' W 090°22'0 0.4
2014-Oct-01 11:30N 29°56' W 090°21'1 0.5
2014-Oct-01 09:32N 29°56' W 090°20'0 0.0
2014-Oct-01 08:33N 29°56' W 090°20'0 0.1
2014-Oct-01 07:32N 29°56' W 090°20'1 0.8
2014-Oct-01 06:23N 29°56' W 090°21'2 1.9
2014-Oct-01 05:33N 29°56' W 090°19'1 0.6
2014-Oct-01 04:15N 29°56' W 090°20'0 0.1
2014-Oct-01 01:33N 29°56' W 090°20'0 0.4
2014-Oct-01 00:32N 29°56' W 090°20'0 0.1
2014-Sep-30 23:29N 29°56' W 090°20'0 0.0
2014-Sep-30 22:26N 29°56' W 090°20'0 0.0
2014-Sep-30 10:19N 29°56' W 090°20'0 0.2
2014-Sep-30 09:33N 29°56' W 090°20'0 0.0
2014-Sep-30 08:33N 29°56' W 090°20'0 0.4
2014-Sep-30 07:33N 29°56' W 090°21'1 0.9
2014-Sep-30 06:33N 29°56' W 090°19'1 0.7
2014-Sep-30 05:27N 29°56' W 090°20'0 0.4
2014-Sep-30 04:33N 29°56' W 090°20'1 0.5
2014-Sep-30 03:32N 29°56' W 090°20'0 0.3
2014-Sep-30 02:33N 29°56' W 090°20'2 1.6
2014-Sep-30 01:33N 29°56' W 090°22'2 1.8
2014-Sep-30 00:33N 29°57' W 090°24'1 1.3
2014-Sep-29 23:33N 29°57' W 090°23'2 0.2
2014-Sep-29 12:24N 29°56' W 090°20'0 0.2
2014-Sep-29 10:33N 29°56' W 090°20'0 0.2
2014-Sep-29 08:06N 29°56' W 090°20'1 1.6
2014-Sep-29 07:33N 29°56' W 090°21'1 0.8
2014-Sep-29 06:23N 29°56' W 090°20'0 0.1
2014-Sep-29 05:33N 29°56' W 090°20'0 0.5
2014-Sep-29 04:33N 29°56' W 090°20'0 0.4
2014-Sep-29 03:32N 29°56' W 090°20'0 0.3
2014-Sep-29 02:33N 29°56' W 090°20'1 0.8
2014-Sep-29 01:33N 29°56' W 090°19'1 0.8
2014-Sep-29 00:28N 29°56' W 090°20'0 0.2
2014-Sep-28 23:32N 29°56' W 090°20'0 0.0
2014-Sep-28 22:31N 29°56' W 090°20'0 0.1
2014-Sep-28 19:28N 29°56' W 090°20'0 0.0
2014-Sep-28 18:33N 29°56' W 090°20'0 0.0
2014-Sep-28 17:33N 29°56' W 090°20'0 0.0
2014-Sep-28 16:16N 29°56' W 090°20'0 0.1
2014-Sep-28 15:28N 29°56' W 090°20'1 0.2
2014-Sep-28 12:10N 29°56' W 090°21'1 2.2
2014-Sep-28 11:33N 29°56' W 090°20'0 0.3
2014-Sep-28 10:27N 29°56' W 090°20'1 1.4
2014-Sep-28 09:33N 29°56' W 090°21'1 0.9
2014-Sep-28 08:33N 29°56' W 090°22'1 0.8
2014-Sep-28 07:25N 29°56' W 090°21'1 0.5
2014-Sep-28 06:21N 29°56' W 090°21'0 0.4
2014-Sep-28 05:08N 29°56' W 090°20'0 0.5
2014-Sep-28 04:33N 29°56' W 090°21'1 1.3
2014-Sep-28 03:30N 29°56' W 090°22'1 1.4
2014-Sep-28 02:33N 29°56' W 090°20'1 0.9
2014-Sep-28 01:33N 29°56' W 090°21'1 1.4
2014-Sep-28 00:30N 29°56' W 090°20'0 0.4
2014-Sep-27 23:29N 29°56' W 090°20'0 0.2
2014-Sep-27 22:33N 29°56' W 090°20'0 0.3
2014-Sep-27 21:33N 29°56' W 090°20'0 0.3
2014-Sep-27 20:33N 29°56' W 090°20'0 0.3
2014-Sep-27 19:33N 29°56' W 090°20'1 1.0
2014-Sep-27 18:32N 29°56' W 090°22'1 0.8
2014-Sep-27 17:22N 29°56' W 090°20'0 0.3
2014-Sep-27 16:28N 29°56' W 090°20'1 0.2
2014-Sep-27 12:33N 29°56' W 090°20'0 0.3
2014-Sep-27 11:33N 29°56' W 090°20'0 0.1
2014-Sep-27 10:33N 29°56' W 090°20'0 0.4
2014-Sep-27 09:33N 29°56' W 090°20'2 1.6
2014-Sep-27 08:33N 29°57' W 090°18'3 2.9
2014-Sep-27 07:33N 29°56' W 090°22'1 1.5
2014-Sep-27 06:33N 29°56' W 090°20'0 0.3
2014-Sep-27 05:33N 29°56' W 090°20'0 0.5
2014-Sep-27 04:31N 29°56' W 090°20'0 0.3
2014-Sep-27 03:26N 29°56' W 090°20'1 0.6
2014-Sep-27 02:31N 29°56' W 090°20'1 0.2
2014-Sep-26 23:30N 29°56' W 090°20'1 0.7
2014-Sep-26 22:30N 29°56' W 090°19'1 0.0
2014-Sep-25 12:13N 29°56' W 090°20'1 0.0
2014-Sep-24 12:27N 29°56' W 090°19'0 0.2
2014-Sep-24 11:08N 29°56' W 090°19'1 0.2
2014-Sep-24 07:22N 29°56' W 090°20'1 1.7
2014-Sep-24 06:29N 29°56' W 090°22'0 0.2
2014-Sep-24 05:28N 29°56' W 090°22'2 1.9
2014-Sep-24 04:33N 29°56' W 090°20'2 2.0
2014-Sep-24 03:33N 29°56' W 090°22'1 0.7
2014-Sep-24 02:31N 29°56' W 090°21'1 0.8
2014-Sep-24 01:33N 29°56' W 090°20'2 1.7
2014-Sep-24 00:33N 29°56' W 090°22'2 1.9
2014-Sep-23 23:32N 29°56' W 090°20'0 0.0
2014-Sep-23 12:30N 29°56' W 090°20'1 0.6
2014-Sep-23 11:33N 29°56' W 090°19'1 0.5
2014-Sep-23 10:33N 29°56' W 090°20'0 0.4
2014-Sep-23 09:31N 29°56' W 090°21'0 0.2
2014-Sep-23 08:33N 29°56' W 090°20'0 0.1
2014-Sep-23 07:32N 29°56' W 090°20'3 2.6
2014-Sep-23 06:31N 29°57' W 090°18'3 0.1
2014-Sep-22 11:33N 29°56' W 090°20'0 0.1
2014-Sep-22 09:30N 29°56' W 090°20'0 0.0
2014-Sep-21 12:33N 29°56' W 090°20'  
Track history (hours):
 
Tides and Currents Weather Stations Pressure Air Temp Water Temp Dewpoint Dewpoint Depression Visibility Wind Speed Wind Dir Waves Ship Positions

Alleycat

Owner: GNOTS-RESERVE, INC., DESTREHAN, LA. More information available from US FCC via Universal Licensing System and Coast Guard Vessel Documentation Center.

Last reported at 2014-Oct-01 12:24 UTC. Time now 2014-Oct-01 18:20 UTC.
Position N 29°56' W 090°22'.

Length 22 m; draft 2.8 m.

Type: Tug. MMSI: 366459132.

Date/timePositionNaut miles runAvg speedWind from/ knotsBaromVisibWave heightAir tempDewpointWater temp
2014-Oct-01 12:24N 29°56' W 090°22'0 0.4
2014-Oct-01 11:30N 29°56' W 090°21'1 0.5
2014-Oct-01 09:32N 29°56' W 090°20'0 0.0
2014-Oct-01 08:33N 29°56' W 090°20'0 0.1
2014-Oct-01 07:32N 29°56' W 090°20'1 0.8
2014-Oct-01 06:23N 29°56' W 090°21'2 1.9
2014-Oct-01 05:33N 29°56' W 090°19'1 0.6
2014-Oct-01 04:15N 29°56' W 090°20'0 0.1
2014-Oct-01 01:33N 29°56' W 090°20'0 0.4
2014-Oct-01 00:32N 29°56' W 090°20'0 0.1
2014-Sep-30 23:29N 29°56' W 090°20'0 0.0
2014-Sep-30 22:26N 29°56' W 090°20'0 0.0
2014-Sep-30 10:19N 29°56' W 090°20'0 0.2
2014-Sep-30 09:33N 29°56' W 090°20'0 0.0
2014-Sep-30 08:33N 29°56' W 090°20'0 0.4
2014-Sep-30 07:33N 29°56' W 090°21'1 0.9
2014-Sep-30 06:33N 29°56' W 090°19'1 0.7
2014-Sep-30 05:27N 29°56' W 090°20'0 0.4
2014-Sep-30 04:33N 29°56' W 090°20'1 0.5
2014-Sep-30 03:32N 29°56' W 090°20'0 0.3
2014-Sep-30 02:33N 29°56' W 090°20'2 1.6
2014-Sep-30 01:33N 29°56' W 090°22'2 1.8
2014-Sep-30 00:33N 29°57' W 090°24'1 1.3
2014-Sep-29 23:33N 29°57' W 090°23'2 0.2
2014-Sep-29 12:24N 29°56' W 090°20'0 0.2
2014-Sep-29 10:33N 29°56' W 090°20'0 0.2
2014-Sep-29 08:06N 29°56' W 090°20'1 1.6
2014-Sep-29 07:33N 29°56' W 090°21'1 0.8
2014-Sep-29 06:23N 29°56' W 090°20'0 0.1
2014-Sep-29 05:33N 29°56' W 090°20'0 0.5
2014-Sep-29 04:33N 29°56' W 090°20'0 0.4
2014-Sep-29 03:32N 29°56' W 090°20'0 0.3
2014-Sep-29 02:33N 29°56' W 090°20'1 0.8
2014-Sep-29 01:33N 29°56' W 090°19'1 0.8
2014-Sep-29 00:28N 29°56' W 090°20'0 0.2
2014-Sep-28 23:32N 29°56' W 090°20'0 0.0
2014-Sep-28 22:31N 29°56' W 090°20'0 0.1
2014-Sep-28 19:28N 29°56' W 090°20'0 0.0
2014-Sep-28 18:33N 29°56' W 090°20'0 0.0
2014-Sep-28 17:33N 29°56' W 090°20'0 0.0
2014-Sep-28 16:16N 29°56' W 090°20'0 0.1
2014-Sep-28 15:28N 29°56' W 090°20'1 0.2
2014-Sep-28 12:10N 29°56' W 090°21'1 2.2
2014-Sep-28 11:33N 29°56' W 090°20'0 0.3
2014-Sep-28 10:27N 29°56' W 090°20'1 1.4
2014-Sep-28 09:33N 29°56' W 090°21'1 0.9
2014-Sep-28 08:33N 29°56' W 090°22'1 0.8
2014-Sep-28 07:25N 29°56' W 090°21'1 0.5
2014-Sep-28 06:21N 29°56' W 090°21'0 0.4
2014-Sep-28 05:08N 29°56' W 090°20'0 0.5
2014-Sep-28 04:33N 29°56' W 090°21'1 1.3
2014-Sep-28 03:30N 29°56' W 090°22'1 1.4
2014-Sep-28 02:33N 29°56' W 090°20'1 0.9
2014-Sep-28 01:33N 29°56' W 090°21'1 1.4
2014-Sep-28 00:30N 29°56' W 090°20'0 0.4
2014-Sep-27 23:29N 29°56' W 090°20'0 0.2
2014-Sep-27 22:33N 29°56' W 090°20'0 0.3
2014-Sep-27 21:33N 29°56' W 090°20'0 0.3
2014-Sep-27 20:33N 29°56' W 090°20'0 0.3
2014-Sep-27 19:33N 29°56' W 090°20'1 1.0
2014-Sep-27 18:32N 29°56' W 090°22'1 0.8
2014-Sep-27 17:22N 29°56' W 090°20'0 0.3
2014-Sep-27 16:28N 29°56' W 090°20'1 0.2
2014-Sep-27 12:33N 29°56' W 090°20'0 0.3
2014-Sep-27 11:33N 29°56' W 090°20'0 0.1
2014-Sep-27 10:33N 29°56' W 090°20'0 0.4
2014-Sep-27 09:33N 29°56' W 090°20'2 1.6
2014-Sep-27 08:33N 29°57' W 090°18'3 2.9
2014-Sep-27 07:33N 29°56' W 090°22'1 1.5
2014-Sep-27 06:33N 29°56' W 090°20'0 0.3
2014-Sep-27 05:33N 29°56' W 090°20'0 0.5
2014-Sep-27 04:31N 29°56' W 090°20'0 0.3
2014-Sep-27 03:26N 29°56' W 090°20'1 0.6
2014-Sep-27 02:31N 29°56' W 090°20'1 0.2
2014-Sep-26 23:30N 29°56' W 090°20'1 0.7
2014-Sep-26 22:30N 29°56' W 090°19'1 0.0
2014-Sep-25 12:13N 29°56' W 090°20'1 0.0
2014-Sep-24 12:27N 29°56' W 090°19'0 0.2
2014-Sep-24 11:08N 29°56' W 090°19'1 0.2
2014-Sep-24 07:22N 29°56' W 090°20'1 1.7
2014-Sep-24 06:29N 29°56' W 090°22'0 0.2
2014-Sep-24 05:28N 29°56' W 090°22'2 1.9
2014-Sep-24 04:33N 29°56' W 090°20'2 2.0
2014-Sep-24 03:33N 29°56' W 090°22'1 0.7
2014-Sep-24 02:31N 29°56' W 090°21'1 0.8
2014-Sep-24 01:33N 29°56' W 090°20'2 1.7
2014-Sep-24 00:33N 29°56' W 090°22'2 1.9
2014-Sep-23 23:32N 29°56' W 090°20'0 0.0
2014-Sep-23 12:30N 29°56' W 090°20'1 0.6
2014-Sep-23 11:33N 29°56' W 090°19'1 0.5
2014-Sep-23 10:33N 29°56' W 090°20'0 0.4
2014-Sep-23 09:31N 29°56' W 090°21'0 0.2
2014-Sep-23 08:33N 29°56' W 090°20'0 0.1
2014-Sep-23 07:32N 29°56' W 090°20'3 2.6
2014-Sep-23 06:31N 29°57' W 090°18'3 0.1
2014-Sep-22 11:33N 29°56' W 090°20'0 0.1
2014-Sep-22 09:30N 29°56' W 090°20'0 0.0
2014-Sep-21 12:33N 29°56' W 090°20'  

Dump ship's entire track history